< < Back
Terminal Aerodrome Forecast


Current Version              Previous Versions:   1  2  3  4  5  6  7  8  9  

Terminal Aerodrome Forecast

991
FTUS42 KMLB 020001 RRA
TAFMCO
TAF
KMCO 020001Z 0200/0224 15006KT P6SM BKN250
      TEMPO 0200/0202 5SM SHRA BKN040 BKN100
     FM020600 20003KT P6SM FEW050 BKN250
     FM021800 22008KT P6SM VCTS SCT025 BKN040CB BKN100=

Latest METAR

108
SAUS70 KWBC 020156
MTRMCO
METAR KMCO 020153Z 14006KT 10SM SCT080 OVC130 24/23 A3008 RMK AO2 RAE32
TSE11 SLP185 P0001 T02440233 $


USA.gov is the U.S. government's official web portal to all federal, state and local government web resources and services.